메인 페이지
METAR-TAF:

METAR-TAF

공항 :

Dawadmi, 사우디아라비아

위도: 24-26-59N, 경도: 044-07-16E, 고도: 922m

현재 날씨관측

예보는 1 시간 12분 전, 09:00시(UTC)에 발표되었습니다.
북북동15kt
온도 42°C
습도 8%
기압 1006 hPa
시정 10km 이상
1500m 미만 상공 구름 및 적란운 없음

METAR: OEDM 240900Z 03015KT CAVOK 42/01 Q1006

시각: 13:12 (10:12 UTC)

예보

예보는 11 시간 12분 전, 23:00시(UTC)에 발표되었습니다.
예보 대상 시간: 24일 06시부터 24일 20시까지 (UTC)
10kt
시정: 8000m
고도 4000ft 상공 구름 조금
고도 9000ft 상공 구름 보통
전환 중
24일 10시부터 24일 12시까지 (UTC)
동북동10kt

TAF: OEDM 232300Z 2406/2420 35010KT 8000 FEW040 SCT090 BECMG 2410/2412 06010KT

4,000개 이상의 공항 관측 자료 및 예보 (METAR 및 TAF 보고).

지도상에서 검색 가능한 기상관측소가 노란 점과 빨간 점으로 표시되어 있습니다.

기상관측소 명을 보려면 표시 위로 마우스를 이동하세요.

날씨 관측과 예보를 보려면 클릭하세요.

지도 변경 : 확대하려면 엑스 표시가 있는 녹색 버튼, 축소하려면 빼기 표시가 있는 녹색 버튼, 다음 페이지의 지도를 보려면 녹색 화살표를 클릭하세요.


METAR-TAF: